sensor_id;sensor_type;location;lat;lon;timestamp;temperature;humidity
3996;DHT22;2012;49.794;9.722;2023-10-31T00:01:50;13.10;99.90
3996;DHT22;2012;49.794;9.722;2023-10-31T00:04:17;13.10;99.90
3996;DHT22;2012;49.794;9.722;2023-10-31T00:06:44;13.00;99.90
3996;DHT22;2012;49.794;9.722;2023-10-31T00:09:11;13.00;99.90
3996;DHT22;2012;49.794;9.722;2023-10-31T00:11:38;13.00;99.90
3996;DHT22;2012;49.794;9.722;2023-10-31T00:14:07;13.00;99.90
3996;DHT22;2012;49.794;9.722;2023-10-31T00:16:55;13.00;99.90
3996;DHT22;2012;49.794;9.722;2023-10-31T00:19:22;12.80;99.90
3996;DHT22;2012;49.794;9.722;2023-10-31T00:21:49;12.80;99.90
3996;DHT22;2012;49.794;9.722;2023-10-31T00:24:16;12.80;99.90
3996;DHT22;2012;49.794;9.722;2023-10-31T00:26:43;12.80;99.90
3996;DHT22;2012;49.794;9.722;2023-10-31T00:29:10;12.90;99.90
3996;DHT22;2012;49.794;9.722;2023-10-31T00:31:37;12.80;99.90
3996;DHT22;2012;49.794;9.722;2023-10-31T00:34:08;12.80;99.90
3996;DHT22;2012;49.794;9.722;2023-10-31T00:36:35;12.70;99.90
3996;DHT22;2012;49.794;9.722;2023-10-31T00:39:02;12.70;99.90
3996;DHT22;2012;49.794;9.722;2023-10-31T00:41:29;12.70;99.90
3996;DHT22;2012;49.794;9.722;2023-10-31T00:43:56;12.70;99.90
3996;DHT22;2012;49.794;9.722;2023-10-31T00:46:23;12.70;99.90
3996;DHT22;2012;49.794;9.722;2023-10-31T00:48:50;12.60;99.90
3996;DHT22;2012;49.794;9.722;2023-10-31T00:51:16;12.60;99.90
3996;DHT22;2012;49.794;9.722;2023-10-31T00:53:44;12.60;99.90
3996;DHT22;2012;49.794;9.722;2023-10-31T00:56:11;12.60;99.90
3996;DHT22;2012;49.794;9.722;2023-10-31T00:58:38;12.60;99.90
3996;DHT22;2012;49.794;9.722;2023-10-31T01:01:06;12.50;99.90
3996;DHT22;2012;49.794;9.722;2023-10-31T01:03:33;12.50;99.90
3996;DHT22;2012;49.794;9.722;2023-10-31T01:06:00;12.50;99.90
3996;DHT22;2012;49.794;9.722;2023-10-31T01:08:27;12.40;99.90
3996;DHT22;2012;49.794;9.722;2023-10-31T01:10:54;12.40;99.90
3996;DHT22;2012;49.794;9.722;2023-10-31T01:13:21;12.40;99.90
3996;DHT22;2012;49.794;9.722;2023-10-31T01:15:48;12.30;99.90
3996;DHT22;2012;49.794;9.722;2023-10-31T01:18:15;12.40;99.90
3996;DHT22;2012;49.794;9.722;2023-10-31T01:20:42;12.30;99.90
3996;DHT22;2012;49.794;9.722;2023-10-31T01:23:09;12.30;99.90
3996;DHT22;2012;49.794;9.722;2023-10-31T01:25:36;12.20;99.90
3996;DHT22;2012;49.794;9.722;2023-10-31T01:28:03;12.20;99.90
3996;DHT22;2012;49.794;9.722;2023-10-31T01:30:30;12.20;99.90
3996;DHT22;2012;49.794;9.722;2023-10-31T01:32:57;12.20;99.90
3996;DHT22;2012;49.794;9.722;2023-10-31T01:35:24;12.10;99.90
3996;DHT22;2012;49.794;9.722;2023-10-31T01:37:51;12.10;99.90
3996;DHT22;2012;49.794;9.722;2023-10-31T01:40:18;12.10;99.90
3996;DHT22;2012;49.794;9.722;2023-10-31T01:42:45;12.00;99.90
3996;DHT22;2012;49.794;9.722;2023-10-31T01:45:12;12.00;99.90
3996;DHT22;2012;49.794;9.722;2023-10-31T01:47:39;12.00;99.90
3996;DHT22;2012;49.794;9.722;2023-10-31T01:50:07;12.00;99.90
3996;DHT22;2012;49.794;9.722;2023-10-31T01:52:37;12.00;99.90
3996;DHT22;2012;49.794;9.722;2023-10-31T01:55:04;11.80;99.90
3996;DHT22;2012;49.794;9.722;2023-10-31T01:57:31;11.80;99.90
3996;DHT22;2012;49.794;9.722;2023-10-31T01:59:59;11.80;99.90
3996;DHT22;2012;49.794;9.722;2023-10-31T02:02:26;11.80;99.90
3996;DHT22;2012;49.794;9.722;2023-10-31T02:04:54;11.70;99.90
3996;DHT22;2012;49.794;9.722;2023-10-31T02:07:22;11.70;99.90
3996;DHT22;2012;49.794;9.722;2023-10-31T02:09:49;11.70;99.90
3996;DHT22;2012;49.794;9.722;2023-10-31T02:12:35;11.60;99.90
3996;DHT22;2012;49.794;9.722;2023-10-31T02:15:03;11.60;99.90
3996;DHT22;2012;49.794;9.722;2023-10-31T02:17:30;11.50;99.90
3996;DHT22;2012;49.794;9.722;2023-10-31T02:19:57;11.50;99.90
3996;DHT22;2012;49.794;9.722;2023-10-31T02:22:24;11.50;99.90
3996;DHT22;2012;49.794;9.722;2023-10-31T02:24:51;11.50;99.90
3996;DHT22;2012;49.794;9.722;2023-10-31T02:27:18;11.50;99.90
3996;DHT22;2012;49.794;9.722;2023-10-31T02:29:45;11.50;99.90
3996;DHT22;2012;49.794;9.722;2023-10-31T02:32:12;11.40;99.90
3996;DHT22;2012;49.794;9.722;2023-10-31T02:34:39;11.40;99.90
3996;DHT22;2012;49.794;9.722;2023-10-31T02:37:06;11.40;99.90
3996;DHT22;2012;49.794;9.722;2023-10-31T02:39:34;11.40;99.90
3996;DHT22;2012;49.794;9.722;2023-10-31T02:42:01;11.40;99.90
3996;DHT22;2012;49.794;9.722;2023-10-31T02:44:28;11.20;99.90
3996;DHT22;2012;49.794;9.722;2023-10-31T02:46:55;11.20;99.90
3996;DHT22;2012;49.794;9.722;2023-10-31T02:49:22;11.30;99.90
3996;DHT22;2012;49.794;9.722;2023-10-31T02:51:49;11.20;99.90
3996;DHT22;2012;49.794;9.722;2023-10-31T02:54:16;11.20;99.90
3996;DHT22;2012;49.794;9.722;2023-10-31T02:56:43;11.30;99.90
3996;DHT22;2012;49.794;9.722;2023-10-31T02:59:09;11.30;99.90
3996;DHT22;2012;49.794;9.722;2023-10-31T03:01:36;11.20;99.90
3996;DHT22;2012;49.794;9.722;2023-10-31T03:04:04;11.20;99.90
3996;DHT22;2012;49.794;9.722;2023-10-31T03:06:31;11.20;99.90
3996;DHT22;2012;49.794;9.722;2023-10-31T03:08:58;11.20;99.90
3996;DHT22;2012;49.794;9.722;2023-10-31T03:11:26;11.30;99.90
3996;DHT22;2012;49.794;9.722;2023-10-31T03:13:53;11.30;99.90
3996;DHT22;2012;49.794;9.722;2023-10-31T03:16:21;11.20;99.90
3996;DHT22;2012;49.794;9.722;2023-10-31T03:18:49;11.30;99.90
3996;DHT22;2012;49.794;9.722;2023-10-31T03:21:16;11.20;99.90
3996;DHT22;2012;49.794;9.722;2023-10-31T03:23:48;11.10;99.90
3996;DHT22;2012;49.794;9.722;2023-10-31T03:26:16;11.20;99.90
3996;DHT22;2012;49.794;9.722;2023-10-31T03:28:44;11.20;99.90
3996;DHT22;2012;49.794;9.722;2023-10-31T03:31:12;11.20;99.90
3996;DHT22;2012;49.794;9.722;2023-10-31T03:33:40;11.10;99.90
3996;DHT22;2012;49.794;9.722;2023-10-31T03:36:09;11.00;99.90
3996;DHT22;2012;49.794;9.722;2023-10-31T03:38:38;10.90;99.90
3996;DHT22;2012;49.794;9.722;2023-10-31T03:41:05;10.90;99.90
3996;DHT22;2012;49.794;9.722;2023-10-31T03:43:32;11.00;99.90
3996;DHT22;2012;49.794;9.722;2023-10-31T03:46:00;11.00;99.90
3996;DHT22;2012;49.794;9.722;2023-10-31T03:48:27;11.00;99.90
3996;DHT22;2012;49.794;9.722;2023-10-31T03:50:54;11.00;99.90
3996;DHT22;2012;49.794;9.722;2023-10-31T03:53:21;11.00;99.90
3996;DHT22;2012;49.794;9.722;2023-10-31T03:55:48;11.00;99.90
3996;DHT22;2012;49.794;9.722;2023-10-31T03:58:15;10.90;99.90
3996;DHT22;2012;49.794;9.722;2023-10-31T04:00:42;10.90;99.90
3996;DHT22;2012;49.794;9.722;2023-10-31T04:03:09;11.00;99.90
3996;DHT22;2012;49.794;9.722;2023-10-31T04:05:36;10.90;99.90
3996;DHT22;2012;49.794;9.722;2023-10-31T04:08:04;10.90;99.90
3996;DHT22;2012;49.794;9.722;2023-10-31T04:10:31;10.90;99.90
3996;DHT22;2012;49.794;9.722;2023-10-31T04:12:58;10.90;99.90
3996;DHT22;2012;49.794;9.722;2023-10-31T04:15:25;11.00;99.90
3996;DHT22;2012;49.794;9.722;2023-10-31T04:17:52;11.00;99.90
3996;DHT22;2012;49.794;9.722;2023-10-31T04:20:19;11.00;99.90
3996;DHT22;2012;49.794;9.722;2023-10-31T04:22:46;11.00;99.90
3996;DHT22;2012;49.794;9.722;2023-10-31T04:25:13;11.00;99.90
3996;DHT22;2012;49.794;9.722;2023-10-31T04:27:40;11.00;99.90
3996;DHT22;2012;49.794;9.722;2023-10-31T04:30:07;11.00;99.90
3996;DHT22;2012;49.794;9.722;2023-10-31T04:32:38;11.00;99.90
3996;DHT22;2012;49.794;9.722;2023-10-31T04:35:05;11.00;99.90
3996;DHT22;2012;49.794;9.722;2023-10-31T04:37:32;11.00;99.90
3996;DHT22;2012;49.794;9.722;2023-10-31T04:40:01;11.00;99.90
3996;DHT22;2012;49.794;9.722;2023-10-31T04:42:28;11.00;99.90
3996;DHT22;2012;49.794;9.722;2023-10-31T04:44:55;10.90;99.90
3996;DHT22;2012;49.794;9.722;2023-10-31T04:47:22;10.90;99.90
3996;DHT22;2012;49.794;9.722;2023-10-31T04:49:49;10.90;99.90
3996;DHT22;2012;49.794;9.722;2023-10-31T04:52:17;11.00;99.90
3996;DHT22;2012;49.794;9.722;2023-10-31T04:54:44;11.00;99.90
3996;DHT22;2012;49.794;9.722;2023-10-31T04:57:11;11.10;99.90
3996;DHT22;2012;49.794;9.722;2023-10-31T04:59:38;11.10;99.90
3996;DHT22;2012;49.794;9.722;2023-10-31T05:02:05;11.10;99.90
3996;DHT22;2012;49.794;9.722;2023-10-31T05:04:32;11.00;99.90
3996;DHT22;2012;49.794;9.722;2023-10-31T05:06:59;11.00;99.90
3996;DHT22;2012;49.794;9.722;2023-10-31T05:09:26;11.00;99.90
3996;DHT22;2012;49.794;9.722;2023-10-31T05:11:53;11.00;99.90
3996;DHT22;2012;49.794;9.722;2023-10-31T05:14:20;11.00;99.90
3996;DHT22;2012;49.794;9.722;2023-10-31T05:16:47;11.00;99.90
3996;DHT22;2012;49.794;9.722;2023-10-31T05:19:14;11.00;99.90
3996;DHT22;2012;49.794;9.722;2023-10-31T05:21:41;11.00;99.90
3996;DHT22;2012;49.794;9.722;2023-10-31T05:24:08;11.10;99.90
3996;DHT22;2012;49.794;9.722;2023-10-31T05:26:35;11.10;99.90
3996;DHT22;2012;49.794;9.722;2023-10-31T05:29:02;11.00;99.90
3996;DHT22;2012;49.794;9.722;2023-10-31T05:31:29;11.00;99.90
3996;DHT22;2012;49.794;9.722;2023-10-31T05:33:56;11.00;99.90
3996;DHT22;2012;49.794;9.722;2023-10-31T05:36:24;11.00;99.90
3996;DHT22;2012;49.794;9.722;2023-10-31T05:38:51;11.10;99.90
3996;DHT22;2012;49.794;9.722;2023-10-31T05:41:18;11.10;99.90
3996;DHT22;2012;49.794;9.722;2023-10-31T05:43:45;11.00;99.90
3996;DHT22;2012;49.794;9.722;2023-10-31T05:46:12;11.10;99.90
3996;DHT22;2012;49.794;9.722;2023-10-31T05:48:46;11.00;99.90
3996;DHT22;2012;49.794;9.722;2023-10-31T05:51:14;11.00;99.90
3996;DHT22;2012;49.794;9.722;2023-10-31T05:53:43;11.00;99.90
3996;DHT22;2012;49.794;9.722;2023-10-31T05:56:14;11.00;99.90
3996;DHT22;2012;49.794;9.722;2023-10-31T05:58:42;11.00;99.90
3996;DHT22;2012;49.794;9.722;2023-10-31T06:01:09;10.90;99.90
3996;DHT22;2012;49.794;9.722;2023-10-31T06:03:36;11.00;99.90
3996;DHT22;2012;49.794;9.722;2023-10-31T06:06:04;11.10;99.90
3996;DHT22;2012;49.794;9.722;2023-10-31T06:08:31;11.10;99.90
3996;DHT22;2012;49.794;9.722;2023-10-31T06:10:58;11.10;99.90
3996;DHT22;2012;49.794;9.722;2023-10-31T06:13:25;11.10;99.90
3996;DHT22;2012;49.794;9.722;2023-10-31T06:15:54;11.00;99.90
3996;DHT22;2012;49.794;9.722;2023-10-31T06:18:27;11.00;99.90
3996;DHT22;2012;49.794;9.722;2023-10-31T06:20:54;11.00;99.90
3996;DHT22;2012;49.794;9.722;2023-10-31T06:23:21;11.10;99.90
3996;DHT22;2012;49.794;9.722;2023-10-31T06:25:48;11.10;99.90
3996;DHT22;2012;49.794;9.722;2023-10-31T06:28:15;11.10;99.90
3996;DHT22;2012;49.794;9.722;2023-10-31T06:30:42;11.00;99.90
3996;DHT22;2012;49.794;9.722;2023-10-31T06:33:09;11.00;99.90
3996;DHT22;2012;49.794;9.722;2023-10-31T06:35:37;11.10;99.90
3996;DHT22;2012;49.794;9.722;2023-10-31T06:38:04;11.00;99.90
3996;DHT22;2012;49.794;9.722;2023-10-31T06:40:31;11.10;99.90
3996;DHT22;2012;49.794;9.722;2023-10-31T06:42:58;11.00;99.90
3996;DHT22;2012;49.794;9.722;2023-10-31T06:45:26;11.10;99.90
3996;DHT22;2012;49.794;9.722;2023-10-31T06:47:53;11.00;99.90
3996;DHT22;2012;49.794;9.722;2023-10-31T06:50:21;11.00;99.90
3996;DHT22;2012;49.794;9.722;2023-10-31T06:52:47;11.00;99.90
3996;DHT22;2012;49.794;9.722;2023-10-31T06:55:15;11.00;99.90
3996;DHT22;2012;49.794;9.722;2023-10-31T06:57:42;11.00;99.90
3996;DHT22;2012;49.794;9.722;2023-10-31T07:00:11;11.00;99.90
3996;DHT22;2012;49.794;9.722;2023-10-31T07:02:38;11.00;99.90
3996;DHT22;2012;49.794;9.722;2023-10-31T07:05:07;11.00;99.90
3996;DHT22;2012;49.794;9.722;2023-10-31T07:07:34;11.00;99.90
3996;DHT22;2012;49.794;9.722;2023-10-31T07:10:01;11.00;99.90
3996;DHT22;2012;49.794;9.722;2023-10-31T07:12:28;11.00;99.90
3996;DHT22;2012;49.794;9.722;2023-10-31T07:14:55;11.00;99.90
3996;DHT22;2012;49.794;9.722;2023-10-31T07:17:26;11.10;99.90
3996;DHT22;2012;49.794;9.722;2023-10-31T07:19:53;11.00;99.90
3996;DHT22;2012;49.794;9.722;2023-10-31T07:22:20;11.00;99.90
3996;DHT22;2012;49.794;9.722;2023-10-31T07:24:49;11.00;99.90
3996;DHT22;2012;49.794;9.722;2023-10-31T07:27:16;11.10;99.90
3996;DHT22;2012;49.794;9.722;2023-10-31T07:29:43;11.00;99.90
3996;DHT22;2012;49.794;9.722;2023-10-31T07:32:10;11.00;99.90
3996;DHT22;2012;49.794;9.722;2023-10-31T07:34:40;11.10;99.90
3996;DHT22;2012;49.794;9.722;2023-10-31T07:37:08;11.00;99.90
3996;DHT22;2012;49.794;9.722;2023-10-31T07:39:35;11.00;99.90
3996;DHT22;2012;49.794;9.722;2023-10-31T07:42:02;11.00;99.90
3996;DHT22;2012;49.794;9.722;2023-10-31T07:44:29;11.00;99.90
3996;DHT22;2012;49.794;9.722;2023-10-31T07:46:56;11.00;99.90
3996;DHT22;2012;49.794;9.722;2023-10-31T07:49:24;11.00;99.90
3996;DHT22;2012;49.794;9.722;2023-10-31T07:51:51;11.00;99.90
3996;DHT22;2012;49.794;9.722;2023-10-31T07:54:18;11.00;99.90
3996;DHT22;2012;49.794;9.722;2023-10-31T07:56:45;11.00;99.90
3996;DHT22;2012;49.794;9.722;2023-10-31T07:59:12;11.00;99.90
3996;DHT22;2012;49.794;9.722;2023-10-31T08:01:39;11.00;99.90
3996;DHT22;2012;49.794;9.722;2023-10-31T08:04:06;11.00;99.90
3996;DHT22;2012;49.794;9.722;2023-10-31T08:06:33;11.00;99.90
3996;DHT22;2012;49.794;9.722;2023-10-31T08:09:00;11.00;99.90
3996;DHT22;2012;49.794;9.722;2023-10-31T08:11:27;11.00;99.90
3996;DHT22;2012;49.794;9.722;2023-10-31T08:13:54;11.00;99.90
3996;DHT22;2012;49.794;9.722;2023-10-31T08:16:21;11.00;99.90
3996;DHT22;2012;49.794;9.722;2023-10-31T08:18:48;11.00;99.90
3996;DHT22;2012;49.794;9.722;2023-10-31T08:21:15;11.00;99.90
3996;DHT22;2012;49.794;9.722;2023-10-31T08:23:42;11.10;99.90
3996;DHT22;2012;49.794;9.722;2023-10-31T08:26:12;11.10;99.90
3996;DHT22;2012;49.794;9.722;2023-10-31T08:28:40;11.10;99.90
3996;DHT22;2012;49.794;9.722;2023-10-31T08:31:07;11.10;99.90
3996;DHT22;2012;49.794;9.722;2023-10-31T08:33:34;11.10;99.90
3996;DHT22;2012;49.794;9.722;2023-10-31T08:36:01;11.10;99.90
3996;DHT22;2012;49.794;9.722;2023-10-31T08:38:28;11.20;99.90
3996;DHT22;2012;49.794;9.722;2023-10-31T08:40:58;11.20;99.90
3996;DHT22;2012;49.794;9.722;2023-10-31T08:43:26;11.30;99.90
3996;DHT22;2012;49.794;9.722;2023-10-31T08:45:53;11.20;99.90
3996;DHT22;2012;49.794;9.722;2023-10-31T08:48:21;11.20;99.90
3996;DHT22;2012;49.794;9.722;2023-10-31T08:50:48;11.20;99.90
3996;DHT22;2012;49.794;9.722;2023-10-31T08:53:15;11.20;99.90
3996;DHT22;2012;49.794;9.722;2023-10-31T08:55:42;11.20;99.90
3996;DHT22;2012;49.794;9.722;2023-10-31T08:58:13;11.30;99.90
3996;DHT22;2012;49.794;9.722;2023-10-31T09:00:40;11.40;99.90
3996;DHT22;2012;49.794;9.722;2023-10-31T09:03:08;11.40;99.90
3996;DHT22;2012;49.794;9.722;2023-10-31T09:05:40;11.50;99.90
3996;DHT22;2012;49.794;9.722;2023-10-31T09:08:07;11.50;99.90
3996;DHT22;2012;49.794;9.722;2023-10-31T09:10:36;11.50;99.90
3996;DHT22;2012;49.794;9.722;2023-10-31T09:13:04;11.50;99.90
3996;DHT22;2012;49.794;9.722;2023-10-31T09:15:53;11.50;99.90
3996;DHT22;2012;49.794;9.722;2023-10-31T09:18:22;11.50;99.90
3996;DHT22;2012;49.794;9.722;2023-10-31T09:20:49;11.60;99.90
3996;DHT22;2012;49.794;9.722;2023-10-31T09:23:16;11.60;99.90
3996;DHT22;2012;49.794;9.722;2023-10-31T09:25:44;11.50;99.90
3996;DHT22;2012;49.794;9.722;2023-10-31T09:28:11;11.50;99.90
3996;DHT22;2012;49.794;9.722;2023-10-31T09:30:38;11.50;99.90
3996;DHT22;2012;49.794;9.722;2023-10-31T09:33:05;11.60;99.90
3996;DHT22;2012;49.794;9.722;2023-10-31T09:35:32;11.60;99.90
3996;DHT22;2012;49.794;9.722;2023-10-31T09:37:59;11.60;99.90
3996;DHT22;2012;49.794;9.722;2023-10-31T09:40:26;11.60;99.90
3996;DHT22;2012;49.794;9.722;2023-10-31T09:42:53;11.60;99.90
3996;DHT22;2012;49.794;9.722;2023-10-31T09:45:19;11.60;99.90
3996;DHT22;2012;49.794;9.722;2023-10-31T09:47:46;11.70;99.90
3996;DHT22;2012;49.794;9.722;2023-10-31T09:50:13;11.70;99.90
3996;DHT22;2012;49.794;9.722;2023-10-31T09:52:40;11.70;99.90
3996;DHT22;2012;49.794;9.722;2023-10-31T09:55:08;11.70;99.90
3996;DHT22;2012;49.794;9.722;2023-10-31T09:57:35;11.70;99.90
3996;DHT22;2012;49.794;9.722;2023-10-31T10:00:02;11.80;99.90
3996;DHT22;2012;49.794;9.722;2023-10-31T10:02:35;11.80;99.90
3996;DHT22;2012;49.794;9.722;2023-10-31T10:05:02;11.70;99.90
3996;DHT22;2012;49.794;9.722;2023-10-31T10:07:30;11.70;99.90
3996;DHT22;2012;49.794;9.722;2023-10-31T10:09:56;11.70;99.90
3996;DHT22;2012;49.794;9.722;2023-10-31T10:12:23;11.70;99.90
3996;DHT22;2012;49.794;9.722;2023-10-31T10:14:50;11.70;99.90
3996;DHT22;2012;49.794;9.722;2023-10-31T10:17:23;11.70;99.90
3996;DHT22;2012;49.794;9.722;2023-10-31T10:20:06;11.80;99.90
3996;DHT22;2012;49.794;9.722;2023-10-31T10:22:42;11.70;99.90
3996;DHT22;2012;49.794;9.722;2023-10-31T10:25:11;11.80;99.90
3996;DHT22;2012;49.794;9.722;2023-10-31T10:27:42;11.70;99.90
3996;DHT22;2012;49.794;9.722;2023-10-31T10:30:10;11.80;99.90
3996;DHT22;2012;49.794;9.722;2023-10-31T10:32:37;11.80;99.90
3996;DHT22;2012;49.794;9.722;2023-10-31T10:35:07;11.80;99.90
3996;DHT22;2012;49.794;9.722;2023-10-31T10:37:38;11.80;99.90
3996;DHT22;2012;49.794;9.722;2023-10-31T10:40:07;11.80;99.90
3996;DHT22;2012;49.794;9.722;2023-10-31T10:42:54;11.90;99.90
3996;DHT22;2012;49.794;9.722;2023-10-31T10:45:25;11.90;99.90
3996;DHT22;2012;49.794;9.722;2023-10-31T10:47:52;11.80;99.90
3996;DHT22;2012;49.794;9.722;2023-10-31T10:50:22;11.80;99.90
3996;DHT22;2012;49.794;9.722;2023-10-31T10:53:07;11.80;99.90
3996;DHT22;2012;49.794;9.722;2023-10-31T10:55:41;11.90;99.90
3996;DHT22;2012;49.794;9.722;2023-10-31T10:58:27;11.80;99.90
3996;DHT22;2012;49.794;9.722;2023-10-31T11:00:59;11.90;99.90
3996;DHT22;2012;49.794;9.722;2023-10-31T11:03:26;11.90;99.90
3996;DHT22;2012;49.794;9.722;2023-10-31T11:05:54;11.90;99.90
3996;DHT22;2012;49.794;9.722;2023-10-31T11:08:23;11.90;99.90
3996;DHT22;2012;49.794;9.722;2023-10-31T11:10:53;11.90;99.90
3996;DHT22;2012;49.794;9.722;2023-10-31T11:13:22;11.90;99.90
3996;DHT22;2012;49.794;9.722;2023-10-31T11:15:53;11.90;99.90
3996;DHT22;2012;49.794;9.722;2023-10-31T11:18:22;12.00;99.90
3996;DHT22;2012;49.794;9.722;2023-10-31T11:20:50;12.00;99.90
3996;DHT22;2012;49.794;9.722;2023-10-31T11:23:17;12.00;99.90
3996;DHT22;2012;49.794;9.722;2023-10-31T11:25:44;12.00;99.90
3996;DHT22;2012;49.794;9.722;2023-10-31T11:28:13;12.00;99.90
3996;DHT22;2012;49.794;9.722;2023-10-31T11:30:41;12.00;99.90
3996;DHT22;2012;49.794;9.722;2023-10-31T11:33:14;12.10;99.90
3996;DHT22;2012;49.794;9.722;2023-10-31T11:35:42;12.10;99.90
3996;DHT22;2012;49.794;9.722;2023-10-31T11:38:12;12.10;99.90
3996;DHT22;2012;49.794;9.722;2023-10-31T11:43:15;12.10;99.90
3996;DHT22;2012;49.794;9.722;2023-10-31T11:45:43;12.20;99.90
3996;DHT22;2012;49.794;9.722;2023-10-31T11:48:15;12.20;99.90
3996;DHT22;2012;49.794;9.722;2023-10-31T11:50:42;12.10;99.90
3996;DHT22;2012;49.794;9.722;2023-10-31T11:53:14;12.20;99.90
3996;DHT22;2012;49.794;9.722;2023-10-31T11:55:46;12.20;99.90
3996;DHT22;2012;49.794;9.722;2023-10-31T11:58:20;12.30;99.90
3996;DHT22;2012;49.794;9.722;2023-10-31T12:00:53;12.20;99.90
3996;DHT22;2012;49.794;9.722;2023-10-31T12:03:27;12.30;99.90
3996;DHT22;2012;49.794;9.722;2023-10-31T12:05:56;12.30;99.90
3996;DHT22;2012;49.794;9.722;2023-10-31T12:08:25;12.30;99.90
3996;DHT22;2012;49.794;9.722;2023-10-31T12:10:53;12.30;99.90
3996;DHT22;2012;49.794;9.722;2023-10-31T12:13:20;12.30;99.90
3996;DHT22;2012;49.794;9.722;2023-10-31T12:15:52;12.30;99.90
3996;DHT22;2012;49.794;9.722;2023-10-31T12:18:19;12.30;99.90
3996;DHT22;2012;49.794;9.722;2023-10-31T12:20:50;12.40;99.90
3996;DHT22;2012;49.794;9.722;2023-10-31T12:23:17;12.40;99.90
3996;DHT22;2012;49.794;9.722;2023-10-31T12:25:49;12.50;99.90
3996;DHT22;2012;49.794;9.722;2023-10-31T12:28:23;12.50;99.90
3996;DHT22;2012;49.794;9.722;2023-10-31T12:30:54;12.50;99.90
3996;DHT22;2012;49.794;9.722;2023-10-31T12:33:22;12.50;99.90
3996;DHT22;2012;49.794;9.722;2023-10-31T12:36:01;12.60;99.90
3996;DHT22;2012;49.794;9.722;2023-10-31T12:38:28;12.60;99.90
3996;DHT22;2012;49.794;9.722;2023-10-31T12:40:57;12.70;99.90
3996;DHT22;2012;49.794;9.722;2023-10-31T12:43:24;12.70;99.90
3996;DHT22;2012;49.794;9.722;2023-10-31T12:45:52;12.70;99.90
3996;DHT22;2012;49.794;9.722;2023-10-31T12:48:24;12.80;99.90
3996;DHT22;2012;49.794;9.722;2023-10-31T12:51:06;12.80;99.90
3996;DHT22;2012;49.794;9.722;2023-10-31T12:53:35;12.80;99.90
3996;DHT22;2012;49.794;9.722;2023-10-31T12:56:02;12.90;99.90
3996;DHT22;2012;49.794;9.722;2023-10-31T12:58:30;12.90;99.90
3996;DHT22;2012;49.794;9.722;2023-10-31T13:00:57;12.90;99.90
3996;DHT22;2012;49.794;9.722;2023-10-31T13:03:24;12.90;99.90
3996;DHT22;2012;49.794;9.722;2023-10-31T13:05:51;12.80;99.90
3996;DHT22;2012;49.794;9.722;2023-10-31T13:08:18;12.90;99.90
3996;DHT22;2012;49.794;9.722;2023-10-31T13:10:45;12.90;99.90
3996;DHT22;2012;49.794;9.722;2023-10-31T13:13:12;12.90;99.90
3996;DHT22;2012;49.794;9.722;2023-10-31T13:15:39;12.90;99.90
3996;DHT22;2012;49.794;9.722;2023-10-31T13:18:06;12.90;99.90
3996;DHT22;2012;49.794;9.722;2023-10-31T13:20:34;12.90;99.90
3996;DHT22;2012;49.794;9.722;2023-10-31T13:23:01;12.90;99.90
3996;DHT22;2012;49.794;9.722;2023-10-31T13:25:30;12.90;99.90
3996;DHT22;2012;49.794;9.722;2023-10-31T13:27:58;12.90;99.90
3996;DHT22;2012;49.794;9.722;2023-10-31T13:30:25;12.90;99.90
3996;DHT22;2012;49.794;9.722;2023-10-31T13:32:52;12.90;99.90
3996;DHT22;2012;49.794;9.722;2023-10-31T13:35:20;12.90;99.90
3996;DHT22;2012;49.794;9.722;2023-10-31T13:37:47;12.80;99.90
3996;DHT22;2012;49.794;9.722;2023-10-31T13:40:14;12.80;99.90
3996;DHT22;2012;49.794;9.722;2023-10-31T13:42:41;12.80;99.90
3996;DHT22;2012;49.794;9.722;2023-10-31T13:45:09;12.80;99.90
3996;DHT22;2012;49.794;9.722;2023-10-31T13:47:38;12.80;99.90
3996;DHT22;2012;49.794;9.722;2023-10-31T13:50:06;12.80;99.90
3996;DHT22;2012;49.794;9.722;2023-10-31T13:52:34;12.90;99.90
3996;DHT22;2012;49.794;9.722;2023-10-31T13:55:01;12.90;99.90
3996;DHT22;2012;49.794;9.722;2023-10-31T13:57:28;12.80;99.90
3996;DHT22;2012;49.794;9.722;2023-10-31T13:59:55;12.80;99.90
3996;DHT22;2012;49.794;9.722;2023-10-31T14:02:22;12.80;99.90
3996;DHT22;2012;49.794;9.722;2023-10-31T14:04:49;12.80;99.90
3996;DHT22;2012;49.794;9.722;2023-10-31T14:07:21;12.80;99.90
3996;DHT22;2012;49.794;9.722;2023-10-31T14:09:52;12.80;99.90
3996;DHT22;2012;49.794;9.722;2023-10-31T14:12:19;12.80;99.90
3996;DHT22;2012;49.794;9.722;2023-10-31T14:14:46;12.80;99.90
3996;DHT22;2012;49.794;9.722;2023-10-31T14:17:16;12.90;99.90
3996;DHT22;2012;49.794;9.722;2023-10-31T14:19:43;12.90;99.90
3996;DHT22;2012;49.794;9.722;2023-10-31T14:22:13;12.90;99.90
3996;DHT22;2012;49.794;9.722;2023-10-31T14:24:41;12.90;99.90
3996;DHT22;2012;49.794;9.722;2023-10-31T14:27:08;13.00;99.90
3996;DHT22;2012;49.794;9.722;2023-10-31T14:29:35;13.00;99.90
3996;DHT22;2012;49.794;9.722;2023-10-31T14:32:08;13.00;99.90
3996;DHT22;2012;49.794;9.722;2023-10-31T14:34:36;13.00;99.90
3996;DHT22;2012;49.794;9.722;2023-10-31T14:37:03;13.00;99.90
3996;DHT22;2012;49.794;9.722;2023-10-31T14:39:30;13.00;99.90
3996;DHT22;2012;49.794;9.722;2023-10-31T14:41:57;12.90;99.90
3996;DHT22;2012;49.794;9.722;2023-10-31T14:44:24;12.90;99.90
3996;DHT22;2012;49.794;9.722;2023-10-31T14:46:51;13.00;99.90
3996;DHT22;2012;49.794;9.722;2023-10-31T14:49:18;13.00;99.90
3996;DHT22;2012;49.794;9.722;2023-10-31T14:51:45;13.00;99.90
3996;DHT22;2012;49.794;9.722;2023-10-31T14:54:12;13.00;99.90
3996;DHT22;2012;49.794;9.722;2023-10-31T14:56:39;13.10;99.90
3996;DHT22;2012;49.794;9.722;2023-10-31T14:59:07;13.20;99.90
3996;DHT22;2012;49.794;9.722;2023-10-31T15:01:34;13.20;99.90
3996;DHT22;2012;49.794;9.722;2023-10-31T15:04:01;13.30;99.90
3996;DHT22;2012;49.794;9.722;2023-10-31T15:06:28;13.20;99.90
3996;DHT22;2012;49.794;9.722;2023-10-31T15:08:55;13.20;99.90
3996;DHT22;2012;49.794;9.722;2023-10-31T15:11:22;13.20;99.90
3996;DHT22;2012;49.794;9.722;2023-10-31T15:13:49;13.10;99.90
3996;DHT22;2012;49.794;9.722;2023-10-31T15:16:16;13.10;99.90
3996;DHT22;2012;49.794;9.722;2023-10-31T15:18:43;13.10;99.90
3996;DHT22;2012;49.794;9.722;2023-10-31T15:21:12;13.10;99.90
3996;DHT22;2012;49.794;9.722;2023-10-31T15:23:39;13.00;99.90
3996;DHT22;2012;49.794;9.722;2023-10-31T15:26:05;13.00;99.90
3996;DHT22;2012;49.794;9.722;2023-10-31T15:28:35;13.00;99.90
3996;DHT22;2012;49.794;9.722;2023-10-31T15:31:03;13.00;99.90
3996;DHT22;2012;49.794;9.722;2023-10-31T15:33:30;12.90;99.90
3996;DHT22;2012;49.794;9.722;2023-10-31T15:35:57;12.90;99.90
3996;DHT22;2012;49.794;9.722;2023-10-31T15:38:25;12.80;99.90
3996;DHT22;2012;49.794;9.722;2023-10-31T15:40:53;12.80;99.90
3996;DHT22;2012;49.794;9.722;2023-10-31T15:43:33;12.60;99.90
3996;DHT22;2012;49.794;9.722;2023-10-31T15:46:00;12.50;99.90
3996;DHT22;2012;49.794;9.722;2023-10-31T15:48:27;12.30;99.90
3996;DHT22;2012;49.794;9.722;2023-10-31T15:50:54;12.20;99.90
3996;DHT22;2012;49.794;9.722;2023-10-31T15:53:21;12.10;99.90
3996;DHT22;2012;49.794;9.722;2023-10-31T15:55:49;12.00;99.90
3996;DHT22;2012;49.794;9.722;2023-10-31T15:58:16;12.00;99.90
3996;DHT22;2012;49.794;9.722;2023-10-31T16:00:43;11.80;99.90
3996;DHT22;2012;49.794;9.722;2023-10-31T16:03:10;11.70;99.90
3996;DHT22;2012;49.794;9.722;2023-10-31T16:05:37;11.60;99.90
3996;DHT22;2012;49.794;9.722;2023-10-31T16:08:04;11.60;99.90
3996;DHT22;2012;49.794;9.722;2023-10-31T16:10:32;11.50;99.90